<?xml version="1.0" encoding="UTF-8" standalone="no" ?>
<gpx xmlns="http://www.topografix.com/GPX/1/1" xmlns:xsi="http://www.w3.org/2001/XMLSchema-instance" xsi:schemaLocation="http://www.topografix.com/GPX/1/1 http://www.topografix.com/GPX/1/1/gpx.xsd" version="1.1" creator="VisuGPX - https://www.visugpx.com">
  <metadata>
    <name>le mont Fier</name>
    <desc><![CDATA[départ parking centre Longchaumois;suivre le GRP en direction de la Saugea et prendre à droite le PR endirection de Rosset suivre leGR9 jusqu'au belvédère et redescendre à la D69 (crozet),la prendre sur la gauche jusqu'au ruine et à droite le sentier qui rejoint le GR9 GRP pende à droite et le suivre ,joindre le point de départ .]]></desc>
  </metadata>
  <trk>
    <name><![CDATA[5516736-le mont fier]]></name>
    <trkseg>
      <trkpt lat="46.46183" lon="5.93292">
        <ele>899</ele>
        <time>2018-02-28T18:11:53Z</time>
      </trkpt>
      <trkpt lat="46.46284" lon="5.93567">
        <ele>897</ele>
        <time>2018-02-28T18:12:53Z</time>
      </trkpt>
      <trkpt lat="46.46387" lon="5.9388">
        <ele>907</ele>
        <time>2018-02-28T18:13:53Z</time>
      </trkpt>
      <trkpt lat="46.46444" lon="5.94099">
        <ele>916</ele>
        <time>2018-02-28T18:14:53Z</time>
      </trkpt>
      <trkpt lat="46.46473" lon="5.94361">
        <ele>922</ele>
        <time>2018-02-28T18:15:53Z</time>
      </trkpt>
      <trkpt lat="46.46435" lon="5.94635">
        <ele>925</ele>
        <time>2018-02-28T18:16:53Z</time>
      </trkpt>
      <trkpt lat="46.46488" lon="5.94807">
        <ele>925</ele>
        <time>2018-02-28T18:17:53Z</time>
      </trkpt>
      <trkpt lat="46.46447" lon="5.94983">
        <ele>940</ele>
        <time>2018-02-28T18:18:53Z</time>
      </trkpt>
      <trkpt lat="46.46405" lon="5.95103">
        <ele>952</ele>
        <time>2018-02-28T18:19:53Z</time>
      </trkpt>
      <trkpt lat="46.46364" lon="5.95185">
        <ele>954</ele>
        <time>2018-02-28T18:20:53Z</time>
      </trkpt>
      <trkpt lat="46.46355" lon="5.95296">
        <ele>963</ele>
        <time>2018-02-28T18:21:53Z</time>
      </trkpt>
      <trkpt lat="46.46319" lon="5.95519">
        <ele>972</ele>
        <time>2018-02-28T18:22:53Z</time>
      </trkpt>
      <trkpt lat="46.46302" lon="5.95579">
        <ele>973</ele>
        <time>2018-02-28T18:23:53Z</time>
      </trkpt>
      <trkpt lat="46.46275" lon="5.95798">
        <ele>973</ele>
        <time>2018-02-28T18:24:53Z</time>
      </trkpt>
      <trkpt lat="46.46204" lon="5.95983">
        <ele>971</ele>
        <time>2018-02-28T18:25:53Z</time>
      </trkpt>
      <trkpt lat="46.46142" lon="5.96107">
        <ele>982</ele>
        <time>2018-02-28T18:26:53Z</time>
      </trkpt>
      <trkpt lat="46.46219" lon="5.96352">
        <ele>991</ele>
        <time>2018-02-28T18:27:53Z</time>
      </trkpt>
      <trkpt lat="46.46246" lon="5.96485">
        <ele>999</ele>
        <time>2018-02-28T18:28:53Z</time>
      </trkpt>
      <trkpt lat="46.46151" lon="5.96614">
        <ele>1013</ele>
        <time>2018-02-28T18:29:53Z</time>
      </trkpt>
      <trkpt lat="46.46136" lon="5.96764">
        <ele>1030</ele>
        <time>2018-02-28T18:30:53Z</time>
      </trkpt>
      <trkpt lat="46.45994" lon="5.96785">
        <ele>1031</ele>
        <time>2018-02-28T18:31:53Z</time>
      </trkpt>
      <trkpt lat="46.4587" lon="5.96854">
        <ele>1026</ele>
        <time>2018-02-28T18:32:53Z</time>
      </trkpt>
      <trkpt lat="46.45817" lon="5.97056">
        <ele>1054</ele>
        <time>2018-02-28T18:33:53Z</time>
      </trkpt>
      <trkpt lat="46.45722" lon="5.97129">
        <ele>1075</ele>
        <time>2018-02-28T18:34:53Z</time>
      </trkpt>
      <trkpt lat="46.45625" lon="5.97099">
        <ele>1082</ele>
        <time>2018-02-28T18:35:53Z</time>
      </trkpt>
      <trkpt lat="46.45344" lon="5.97081">
        <ele>1104</ele>
        <time>2018-02-28T18:36:53Z</time>
      </trkpt>
      <trkpt lat="46.45379" lon="5.9715">
        <ele>1110</ele>
        <time>2018-02-28T18:37:53Z</time>
      </trkpt>
      <trkpt lat="46.45326" lon="5.97279">
        <ele>1122</ele>
        <time>2018-02-28T18:38:53Z</time>
      </trkpt>
      <trkpt lat="46.45273" lon="5.97416">
        <ele>1140</ele>
        <time>2018-02-28T18:39:53Z</time>
      </trkpt>
      <trkpt lat="46.45267" lon="5.97519">
        <ele>1156</ele>
        <time>2018-02-28T18:40:53Z</time>
      </trkpt>
      <trkpt lat="46.45223" lon="5.97549">
        <ele>1159</ele>
        <time>2018-02-28T18:41:53Z</time>
      </trkpt>
      <trkpt lat="46.4514" lon="5.97519">
        <ele>1158</ele>
        <time>2018-02-28T18:42:53Z</time>
      </trkpt>
      <trkpt lat="46.45066" lon="5.97476">
        <ele>1158</ele>
        <time>2018-02-28T18:43:53Z</time>
      </trkpt>
      <trkpt lat="46.45025" lon="5.97442">
        <ele>1153</ele>
        <time>2018-02-28T18:44:53Z</time>
      </trkpt>
      <trkpt lat="46.44918" lon="5.97506">
        <ele>1156</ele>
        <time>2018-02-28T18:45:53Z</time>
      </trkpt>
      <trkpt lat="46.44853" lon="5.97669">
        <ele>1146</ele>
        <time>2018-02-28T18:46:53Z</time>
      </trkpt>
      <trkpt lat="46.44755" lon="5.97639">
        <ele>1133</ele>
        <time>2018-02-28T18:47:53Z</time>
      </trkpt>
      <trkpt lat="46.448" lon="5.97772">
        <ele>1138</ele>
        <time>2018-02-28T18:48:53Z</time>
      </trkpt>
      <trkpt lat="46.44823" lon="5.97875">
        <ele>1137</ele>
        <time>2018-02-28T18:49:53Z</time>
      </trkpt>
      <trkpt lat="46.44809" lon="5.97978">
        <ele>1139</ele>
        <time>2018-02-28T18:50:53Z</time>
      </trkpt>
      <trkpt lat="46.44847" lon="5.98111">
        <ele>1151</ele>
        <time>2018-02-28T18:51:53Z</time>
      </trkpt>
      <trkpt lat="46.4477" lon="5.9812">
        <ele>1159</ele>
        <time>2018-02-28T18:52:53Z</time>
      </trkpt>
      <trkpt lat="46.44723" lon="5.98206">
        <ele>1172</ele>
        <time>2018-02-28T18:53:53Z</time>
      </trkpt>
      <trkpt lat="46.4464" lon="5.98249">
        <ele>1184</ele>
        <time>2018-02-28T18:54:53Z</time>
      </trkpt>
      <trkpt lat="46.44747" lon="5.98549">
        <ele>1203</ele>
        <time>2018-02-28T18:55:53Z</time>
      </trkpt>
      <trkpt lat="46.44841" lon="5.98759">
        <ele>1208</ele>
        <time>2018-02-28T18:56:53Z</time>
      </trkpt>
      <trkpt lat="46.44986" lon="5.98845">
        <ele>1206</ele>
        <time>2018-02-28T18:57:53Z</time>
      </trkpt>
      <trkpt lat="46.45042" lon="5.9912">
        <ele>1212</ele>
        <time>2018-02-28T18:58:53Z</time>
      </trkpt>
      <trkpt lat="46.45178" lon="5.99399">
        <ele>1237</ele>
        <time>2018-02-28T18:59:53Z</time>
      </trkpt>
      <trkpt lat="46.4527" lon="5.99519">
        <ele>1255</ele>
        <time>2018-02-28T19:00:53Z</time>
      </trkpt>
      <trkpt lat="46.45397" lon="5.99575">
        <ele>1259</ele>
        <time>2018-02-28T19:01:53Z</time>
      </trkpt>
      <trkpt lat="46.45545" lon="5.99652">
        <ele>1261</ele>
        <time>2018-02-28T19:02:53Z</time>
      </trkpt>
      <trkpt lat="46.45592" lon="5.99832">
        <ele>1261</ele>
        <time>2018-02-28T19:03:53Z</time>
      </trkpt>
      <trkpt lat="46.45675" lon="5.99837">
        <ele>1257</ele>
        <time>2018-02-28T19:04:53Z</time>
      </trkpt>
      <trkpt lat="46.45731" lon="5.99845">
        <ele>1257</ele>
        <time>2018-02-28T19:05:53Z</time>
      </trkpt>
      <trkpt lat="46.45764" lon="5.99901">
        <ele>1255</ele>
        <time>2018-02-28T19:06:53Z</time>
      </trkpt>
      <trkpt lat="46.45829" lon="5.99905">
        <ele>1268</ele>
        <time>2018-02-28T19:07:53Z</time>
      </trkpt>
      <trkpt lat="46.45894" lon="5.99983">
        <ele>1268</ele>
        <time>2018-02-28T19:08:53Z</time>
      </trkpt>
      <trkpt lat="46.45979" lon="6.00021">
        <ele>1274</ele>
        <time>2018-02-28T19:09:53Z</time>
      </trkpt>
      <trkpt lat="46.46053" lon="6.00094">
        <ele>1278</ele>
        <time>2018-02-28T19:10:53Z</time>
      </trkpt>
      <trkpt lat="46.46139" lon="6.00154">
        <ele>1287</ele>
        <time>2018-02-28T19:11:53Z</time>
      </trkpt>
      <trkpt lat="46.4621" lon="6.00219">
        <ele>1253</ele>
        <time>2018-02-28T19:12:53Z</time>
      </trkpt>
      <trkpt lat="46.46098" lon="6.00159">
        <ele>1283</ele>
        <time>2018-02-28T19:13:53Z</time>
      </trkpt>
      <trkpt lat="46.45985" lon="6.0009">
        <ele>1263</ele>
        <time>2018-02-28T19:14:53Z</time>
      </trkpt>
      <trkpt lat="46.45888" lon="6.00043">
        <ele>1250</ele>
        <time>2018-02-28T19:15:53Z</time>
      </trkpt>
      <trkpt lat="46.45787" lon="5.99974">
        <ele>1244</ele>
        <time>2018-02-28T19:16:53Z</time>
      </trkpt>
      <trkpt lat="46.4569" lon="5.99897">
        <ele>1245</ele>
        <time>2018-02-28T19:17:53Z</time>
      </trkpt>
      <trkpt lat="46.45613" lon="5.99867">
        <ele>1250</ele>
        <time>2018-02-28T19:18:53Z</time>
      </trkpt>
      <trkpt lat="46.45524" lon="5.99884">
        <ele>1253</ele>
        <time>2018-02-28T19:19:53Z</time>
      </trkpt>
      <trkpt lat="46.45379" lon="5.99974">
        <ele>1260</ele>
        <time>2018-02-28T19:20:53Z</time>
      </trkpt>
      <trkpt lat="46.4527" lon="5.9994">
        <ele>1270</ele>
        <time>2018-02-28T19:21:53Z</time>
      </trkpt>
      <trkpt lat="46.45143" lon="5.99807">
        <ele>1274</ele>
        <time>2018-02-28T19:22:53Z</time>
      </trkpt>
      <trkpt lat="46.45072" lon="5.99674">
        <ele>1264</ele>
        <time>2018-02-28T19:23:53Z</time>
      </trkpt>
      <trkpt lat="46.44971" lon="5.99618">
        <ele>1260</ele>
        <time>2018-02-28T19:24:53Z</time>
      </trkpt>
      <trkpt lat="46.44903" lon="5.99502">
        <ele>1257</ele>
        <time>2018-02-28T19:25:53Z</time>
      </trkpt>
      <trkpt lat="46.44933" lon="5.99339">
        <ele>1240</ele>
        <time>2018-02-28T19:26:53Z</time>
      </trkpt>
      <trkpt lat="46.44992" lon="5.99163">
        <ele>1216</ele>
        <time>2018-02-28T19:27:53Z</time>
      </trkpt>
      <trkpt lat="46.44998" lon="5.99">
        <ele>1208</ele>
        <time>2018-02-28T19:28:53Z</time>
      </trkpt>
      <trkpt lat="46.44936" lon="5.9885">
        <ele>1206</ele>
        <time>2018-02-28T19:29:53Z</time>
      </trkpt>
      <trkpt lat="46.44782" lon="5.98691">
        <ele>1208</ele>
        <time>2018-02-28T19:30:53Z</time>
      </trkpt>
      <trkpt lat="46.44696" lon="5.98481">
        <ele>1202</ele>
        <time>2018-02-28T19:31:53Z</time>
      </trkpt>
      <trkpt lat="46.44614" lon="5.98262">
        <ele>1188</ele>
        <time>2018-02-28T19:32:53Z</time>
      </trkpt>
      <trkpt lat="46.44702" lon="5.98163">
        <ele>1169</ele>
        <time>2018-02-28T19:33:53Z</time>
      </trkpt>
      <trkpt lat="46.44755" lon="5.98086">
        <ele>1156</ele>
        <time>2018-02-28T19:34:53Z</time>
      </trkpt>
      <trkpt lat="46.44806" lon="5.98069">
        <ele>1148</ele>
        <time>2018-02-28T19:35:53Z</time>
      </trkpt>
      <trkpt lat="46.44782" lon="5.97948">
        <ele>1137</ele>
        <time>2018-02-28T19:36:53Z</time>
      </trkpt>
      <trkpt lat="46.44785" lon="5.97837">
        <ele>1137</ele>
        <time>2018-02-28T19:37:53Z</time>
      </trkpt>
      <trkpt lat="46.44711" lon="5.97601">
        <ele>1133</ele>
        <time>2018-02-28T19:38:53Z</time>
      </trkpt>
      <trkpt lat="46.44616" lon="5.97562">
        <ele>1138</ele>
        <time>2018-02-28T19:39:53Z</time>
      </trkpt>
      <trkpt lat="46.44513" lon="5.97596">
        <ele>1141</ele>
        <time>2018-02-28T19:40:53Z</time>
      </trkpt>
      <trkpt lat="46.44412" lon="5.97614">
        <ele>1143</ele>
        <time>2018-02-28T19:41:53Z</time>
      </trkpt>
      <trkpt lat="46.44276" lon="5.97609">
        <ele>1151</ele>
        <time>2018-02-28T19:42:53Z</time>
      </trkpt>
      <trkpt lat="46.44205" lon="5.97472">
        <ele>1151</ele>
        <time>2018-02-28T19:43:53Z</time>
      </trkpt>
      <trkpt lat="46.44111" lon="5.97382">
        <ele>1152</ele>
        <time>2018-02-28T19:44:53Z</time>
      </trkpt>
      <trkpt lat="46.44043" lon="5.97257">
        <ele>1151</ele>
        <time>2018-02-28T19:45:53Z</time>
      </trkpt>
      <trkpt lat="46.44001" lon="5.97124">
        <ele>1145</ele>
        <time>2018-02-28T19:46:53Z</time>
      </trkpt>
      <trkpt lat="46.4388" lon="5.96966">
        <ele>1138</ele>
        <time>2018-02-28T19:47:53Z</time>
      </trkpt>
      <trkpt lat="46.43812" lon="5.9676">
        <ele>1134</ele>
        <time>2018-02-28T19:48:53Z</time>
      </trkpt>
      <trkpt lat="46.43753" lon="5.96588">
        <ele>1139</ele>
        <time>2018-02-28T19:49:53Z</time>
      </trkpt>
      <trkpt lat="46.43632" lon="5.96326">
        <ele>1149</ele>
        <time>2018-02-28T19:50:53Z</time>
      </trkpt>
      <trkpt lat="46.43558" lon="5.96155">
        <ele>1143</ele>
        <time>2018-02-28T19:51:53Z</time>
      </trkpt>
      <trkpt lat="46.43581" lon="5.96052">
        <ele>1142</ele>
        <time>2018-02-28T19:52:53Z</time>
      </trkpt>
      <trkpt lat="46.43599" lon="5.9588">
        <ele>1126</ele>
        <time>2018-02-28T19:53:53Z</time>
      </trkpt>
      <trkpt lat="46.43685" lon="5.95768">
        <ele>1119</ele>
        <time>2018-02-28T19:54:53Z</time>
      </trkpt>
      <trkpt lat="46.4375" lon="5.95506">
        <ele>1103</ele>
        <time>2018-02-28T19:55:53Z</time>
      </trkpt>
      <trkpt lat="46.43815" lon="5.95455">
        <ele>1100</ele>
        <time>2018-02-28T19:56:53Z</time>
      </trkpt>
      <trkpt lat="46.44025" lon="5.95618">
        <ele>1117</ele>
        <time>2018-02-28T19:57:53Z</time>
      </trkpt>
      <trkpt lat="46.4414" lon="5.95378">
        <ele>1099</ele>
        <time>2018-02-28T19:58:53Z</time>
      </trkpt>
      <trkpt lat="46.44205" lon="5.95167">
        <ele>1083</ele>
        <time>2018-02-28T19:59:53Z</time>
      </trkpt>
      <trkpt lat="46.4425" lon="5.94979">
        <ele>1065</ele>
        <time>2018-02-28T20:00:53Z</time>
      </trkpt>
      <trkpt lat="46.44448" lon="5.94893">
        <ele>1054</ele>
        <time>2018-02-28T20:01:53Z</time>
      </trkpt>
      <trkpt lat="46.44637" lon="5.94747">
        <ele>1039</ele>
        <time>2018-02-28T20:02:53Z</time>
      </trkpt>
      <trkpt lat="46.44776" lon="5.94786">
        <ele>1041</ele>
        <time>2018-02-28T20:03:53Z</time>
      </trkpt>
      <trkpt lat="46.44812" lon="5.94747">
        <ele>1036</ele>
        <time>2018-02-28T20:04:53Z</time>
      </trkpt>
      <trkpt lat="46.44936" lon="5.94807">
        <ele>1032</ele>
        <time>2018-02-28T20:05:53Z</time>
      </trkpt>
      <trkpt lat="46.44954" lon="5.94597">
        <ele>1014</ele>
        <time>2018-02-28T20:06:53Z</time>
      </trkpt>
      <trkpt lat="46.44954" lon="5.94472">
        <ele>1006</ele>
        <time>2018-02-28T20:07:53Z</time>
      </trkpt>
      <trkpt lat="46.4501" lon="5.94498">
        <ele>1003</ele>
        <time>2018-02-28T20:08:53Z</time>
      </trkpt>
      <trkpt lat="46.4506" lon="5.94421">
        <ele>991</ele>
        <time>2018-02-28T20:09:53Z</time>
      </trkpt>
      <trkpt lat="46.4514" lon="5.94425">
        <ele>987</ele>
        <time>2018-02-28T20:10:53Z</time>
      </trkpt>
      <trkpt lat="46.45276" lon="5.94494">
        <ele>990</ele>
        <time>2018-02-28T20:11:53Z</time>
      </trkpt>
      <trkpt lat="46.45385" lon="5.94382">
        <ele>988</ele>
        <time>2018-02-28T20:12:53Z</time>
      </trkpt>
      <trkpt lat="46.45462" lon="5.94331">
        <ele>980</ele>
        <time>2018-02-28T20:13:53Z</time>
      </trkpt>
      <trkpt lat="46.45554" lon="5.94305">
        <ele>971</ele>
        <time>2018-02-28T20:14:53Z</time>
      </trkpt>
      <trkpt lat="46.45657" lon="5.9421">
        <ele>956</ele>
        <time>2018-02-28T20:15:53Z</time>
      </trkpt>
      <trkpt lat="46.45666" lon="5.94082">
        <ele>949</ele>
        <time>2018-02-28T20:16:53Z</time>
      </trkpt>
      <trkpt lat="46.45713" lon="5.94069">
        <ele>945</ele>
        <time>2018-02-28T20:17:53Z</time>
      </trkpt>
      <trkpt lat="46.45781" lon="5.94099">
        <ele>941</ele>
        <time>2018-02-28T20:18:53Z</time>
      </trkpt>
      <trkpt lat="46.45867" lon="5.94069">
        <ele>932</ele>
        <time>2018-02-28T20:19:53Z</time>
      </trkpt>
      <trkpt lat="46.45917" lon="5.94047">
        <ele>928</ele>
        <time>2018-02-28T20:20:53Z</time>
      </trkpt>
      <trkpt lat="46.45923" lon="5.9397">
        <ele>923</ele>
        <time>2018-02-28T20:21:53Z</time>
      </trkpt>
      <trkpt lat="46.45923" lon="5.93897">
        <ele>918</ele>
        <time>2018-02-28T20:22:53Z</time>
      </trkpt>
      <trkpt lat="46.45991" lon="5.93863">
        <ele>915</ele>
        <time>2018-02-28T20:23:53Z</time>
      </trkpt>
      <trkpt lat="46.46045" lon="5.9373">
        <ele>912</ele>
        <time>2018-02-28T20:24:53Z</time>
      </trkpt>
      <trkpt lat="46.4603" lon="5.93541">
        <ele>902</ele>
        <time>2018-02-28T20:25:53Z</time>
      </trkpt>
      <trkpt lat="46.45971" lon="5.93429">
        <ele>897</ele>
        <time>2018-02-28T20:26:53Z</time>
      </trkpt>
      <trkpt lat="46.46015" lon="5.93352">
        <ele>894</ele>
        <time>2018-02-28T20:27:53Z</time>
      </trkpt>
      <trkpt lat="46.46077" lon="5.93301">
        <ele>896</ele>
        <time>2018-02-28T20:28:53Z</time>
      </trkpt>
      <trkpt lat="46.46133" lon="5.93262">
        <ele>898</ele>
        <time>2018-02-28T20:29:53Z</time>
      </trkpt>
    </trkseg>
  </trk>
</gpx>